createdAt,value
2017-09-25T00:00:21.405Z,0
2017-09-25T00:01:01.929Z,0
2017-09-25T00:01:42.444Z,0
2017-09-25T00:02:22.972Z,0
2017-09-25T00:03:03.506Z,0
2017-09-25T00:03:44.032Z,0
2017-09-25T00:04:24.576Z,0
2017-09-25T00:05:05.120Z,0
2017-09-25T00:05:45.654Z,0
2017-09-25T00:06:26.187Z,0
2017-09-25T00:07:06.720Z,0
2017-09-25T00:07:47.263Z,0
2017-09-25T00:08:27.794Z,0
2017-09-25T00:09:08.332Z,0
2017-09-25T00:09:48.917Z,0
2017-09-25T00:10:29.449Z,0
2017-09-25T00:11:09.996Z,0
2017-09-25T00:11:50.529Z,0
2017-09-25T00:12:31.060Z,0
2017-09-25T00:13:11.596Z,0
2017-09-25T00:13:52.128Z,0
2017-09-25T00:14:32.648Z,0
2017-09-25T00:15:13.194Z,0
2017-09-25T00:15:53.733Z,0
2017-09-25T00:16:34.262Z,0
2017-09-25T00:17:14.788Z,0
2017-09-25T00:17:55.325Z,0
2017-09-25T00:18:35.864Z,0
2017-09-25T00:19:16.404Z,0
2017-09-25T00:19:56.937Z,0
2017-09-25T00:20:37.467Z,0
2017-09-25T00:21:17.987Z,0
2017-09-25T00:21:58.522Z,0
2017-09-25T00:22:39.057Z,0
2017-09-25T00:23:19.587Z,0
2017-09-25T00:24:00.128Z,0
2017-09-25T00:24:40.662Z,0
2017-09-25T00:25:21.190Z,0
2017-09-25T00:26:01.726Z,0
2017-09-25T00:26:42.253Z,0
2017-09-25T00:27:22.773Z,0
2017-09-25T00:28:03.318Z,0
2017-09-25T00:28:43.826Z,0
2017-09-25T00:29:24.344Z,0
2017-09-25T00:30:04.852Z,0
2017-09-25T00:30:45.371Z,0
2017-09-25T00:31:25.894Z,0
2017-09-25T00:32:06.432Z,0
2017-09-25T00:32:46.962Z,0
2017-09-25T00:33:27.488Z,0
2017-09-25T00:34:08.030Z,0
2017-09-25T00:34:48.565Z,0
2017-09-25T00:35:29.095Z,0
2017-09-25T00:36:09.626Z,0
2017-09-25T00:36:50.154Z,0
2017-09-25T00:37:30.683Z,0
2017-09-25T00:38:11.217Z,0
2017-09-25T00:38:51.750Z,0
2017-09-25T00:39:32.282Z,0
2017-09-25T00:40:12.809Z,0
2017-09-25T00:40:53.336Z,0
2017-09-25T00:41:33.857Z,0
2017-09-25T00:42:14.400Z,0
2017-09-25T00:42:54.939Z,0
2017-09-25T00:43:35.530Z,0
2017-09-25T00:44:16.062Z,0
2017-09-25T00:44:56.596Z,0
2017-09-25T00:45:37.114Z,0
2017-09-25T00:46:17.649Z,0
2017-09-25T00:46:58.190Z,0
2017-09-25T00:47:38.727Z,0
2017-09-25T00:48:19.259Z,0
2017-09-25T00:48:59.804Z,0
2017-09-25T00:49:40.338Z,0
2017-09-25T00:50:20.870Z,0
2017-09-25T00:51:01.404Z,0
2017-09-25T00:51:41.946Z,0
2017-09-25T00:52:22.478Z,0
2017-09-25T00:53:03.013Z,0
2017-09-25T00:53:43.548Z,0
2017-09-25T00:54:24.082Z,0
2017-09-25T00:55:04.617Z,0
2017-09-25T00:55:45.154Z,0
2017-09-25T00:56:25.696Z,0
2017-09-25T00:57:06.231Z,0
2017-09-25T00:57:46.763Z,0
2017-09-25T00:58:27.296Z,0
2017-09-25T00:59:07.832Z,0
2017-09-25T00:59:48.366Z,0
2017-09-25T01:00:28.899Z,0
2017-09-25T01:01:09.421Z,0
2017-09-25T01:01:49.965Z,0
2017-09-25T01:02:30.495Z,0
2017-09-25T01:03:11.025Z,0
2017-09-25T01:03:51.557Z,0
2017-09-25T01:04:32.085Z,0
2017-09-25T01:05:12.618Z,0
2017-09-25T01:05:53.152Z,0
2017-09-25T01:06:33.686Z,0
2017-09-25T01:07:14.207Z,0
2017-09-25T01:07:54.732Z,0
2017-09-25T01:08:35.266Z,0
2017-09-25T01:09:15.780Z,0
2017-09-25T01:09:56.304Z,0
2017-09-25T01:10:36.836Z,0
2017-09-25T01:11:17.371Z,0
2017-09-25T01:11:57.866Z,0
2017-09-25T01:12:38.395Z,0
2017-09-25T01:13:18.922Z,0
2017-09-25T01:13:59.454Z,0
2017-09-25T01:14:39.965Z,0
2017-09-25T01:15:20.507Z,0
2017-09-25T01:16:01.023Z,0
2017-09-25T01:16:41.570Z,0
2017-09-25T01:17:22.068Z,0
2017-09-25T01:18:02.606Z,0
2017-09-25T01:18:43.132Z,0
2017-09-25T01:19:23.653Z,0
2017-09-25T01:20:04.175Z,0
2017-09-25T01:20:44.700Z,0
2017-09-25T01:21:25.227Z,0
2017-09-25T01:22:05.755Z,0
2017-09-25T01:22:46.290Z,0
2017-09-25T01:23:26.823Z,0
2017-09-25T01:24:07.430Z,0
2017-09-25T01:24:47.976Z,0
2017-09-25T01:25:28.476Z,0
2017-09-25T01:26:09.016Z,0
2017-09-25T01:26:49.550Z,0
2017-09-25T01:27:30.079Z,0
2017-09-25T01:28:10.611Z,0
2017-09-25T01:28:51.148Z,0
2017-09-25T01:29:31.679Z,0
2017-09-25T01:30:12.212Z,0
2017-09-25T01:30:52.740Z,0
2017-09-25T01:31:33.290Z,0
2017-09-25T01:32:13.812Z,0
2017-09-25T01:32:54.318Z,0
2017-09-25T01:33:34.853Z,0
2017-09-25T01:34:15.387Z,0
2017-09-25T01:34:55.923Z,0
2017-09-25T01:35:36.449Z,0
2017-09-25T01:36:16.995Z,0
2017-09-25T01:36:57.530Z,0
2017-09-25T01:37:38.075Z,0
2017-09-25T01:38:18.600Z,0
2017-09-25T01:38:59.137Z,0
2017-09-25T01:39:39.679Z,0
2017-09-25T01:40:20.195Z,0
2017-09-25T01:41:00.730Z,0
2017-09-25T01:41:41.274Z,0
2017-09-25T01:42:21.811Z,0
2017-09-25T01:43:02.377Z,0
2017-09-25T01:43:42.906Z,0
2017-09-25T01:44:23.448Z,0
2017-09-25T01:45:03.975Z,0
2017-09-25T01:45:44.511Z,0
2017-09-25T01:46:25.046Z,0
2017-09-25T01:47:05.581Z,0
2017-09-25T01:47:46.131Z,0
2017-09-25T01:48:26.665Z,0
2017-09-25T01:49:07.200Z,0
2017-09-25T01:49:47.735Z,0
2017-09-25T01:50:28.276Z,0
2017-09-25T01:51:08.807Z,0
2017-09-25T01:51:49.352Z,0
2017-09-25T01:52:29.885Z,0
2017-09-25T01:53:10.404Z,0
2017-09-25T01:53:50.922Z,0
2017-09-25T01:54:31.459Z,0
2017-09-25T01:55:11.988Z,0
2017-09-25T01:55:52.526Z,0
2017-09-25T01:56:33.060Z,0
2017-09-25T01:57:13.601Z,0
2017-09-25T01:57:54.125Z,0
2017-09-25T01:58:34.655Z,0
2017-09-25T01:59:15.181Z,0
2017-09-25T01:59:55.705Z,0
2017-09-25T02:00:36.235Z,0
2017-09-25T02:01:16.767Z,0
2017-09-25T02:01:57.289Z,0
2017-09-25T02:02:37.826Z,0
2017-09-25T02:03:18.360Z,0
2017-09-25T02:03:58.906Z,0
2017-09-25T02:04:39.438Z,0
2017-09-25T02:05:19.976Z,0
2017-09-25T02:06:00.508Z,0
2017-09-25T02:06:41.050Z,0
2017-09-25T02:07:21.585Z,0
2017-09-25T02:08:02.118Z,0
2017-09-25T02:08:42.665Z,0
2017-09-25T02:09:23.164Z,0
2017-09-25T02:10:03.696Z,0
2017-09-25T02:10:44.235Z,0
2017-09-25T02:11:24.765Z,0
2017-09-25T02:12:05.316Z,0
2017-09-25T02:12:45.845Z,0
2017-09-25T02:13:26.360Z,0
2017-09-25T02:14:06.905Z,0
2017-09-25T02:14:47.419Z,0
2017-09-25T02:15:27.928Z,0
2017-09-25T02:16:08.465Z,0
2017-09-25T02:16:48.981Z,0
2017-09-25T02:17:29.508Z,0
2017-09-25T02:18:10.037Z,0
2017-09-25T02:18:50.564Z,0
2017-09-25T02:19:31.094Z,0
2017-09-25T02:20:11.627Z,0
2017-09-25T02:20:52.152Z,0
2017-09-25T02:21:32.678Z,0
2017-09-25T02:22:13.208Z,0
2017-09-25T02:22:53.741Z,0
2017-09-25T02:23:34.271Z,0
2017-09-25T02:24:14.793Z,0
2017-09-25T02:24:55.312Z,0
2017-09-25T02:25:35.903Z,0
2017-09-25T02:26:16.424Z,0
2017-09-25T02:26:56.956Z,0
2017-09-25T02:27:37.476Z,0
2017-09-25T02:28:17.988Z,0
2017-09-25T02:28:58.526Z,0
2017-09-25T02:29:39.048Z,0
2017-09-25T02:30:19.566Z,0
2017-09-25T02:31:00.082Z,0
2017-09-25T02:31:40.612Z,0
2017-09-25T02:32:21.134Z,0
2017-09-25T02:33:01.674Z,0
2017-09-25T02:33:42.204Z,0
2017-09-25T02:34:22.724Z,0
2017-09-25T02:35:03.260Z,0
2017-09-25T02:35:43.782Z,0
2017-09-25T02:36:24.317Z,0
2017-09-25T02:37:04.827Z,0
2017-09-25T02:37:45.367Z,0
2017-09-25T02:38:25.897Z,0
2017-09-25T02:39:06.425Z,0
2017-09-25T02:39:46.957Z,0
2017-09-25T02:40:27.466Z,0
2017-09-25T02:41:07.999Z,0
2017-09-25T02:41:48.534Z,0
2017-09-25T02:42:29.064Z,0
2017-09-25T02:43:09.588Z,0
2017-09-25T02:43:50.129Z,0
2017-09-25T02:44:30.665Z,0
2017-09-25T02:45:11.181Z,0
2017-09-25T02:45:51.713Z,0
2017-09-25T02:46:32.244Z,0
2017-09-25T02:47:12.794Z,0
2017-09-25T02:47:53.299Z,0
2017-09-25T02:48:33.818Z,0
2017-09-25T02:49:14.338Z,0
2017-09-25T02:49:54.875Z,0
2017-09-25T02:50:35.419Z,0
2017-09-25T02:51:15.947Z,0
2017-09-25T02:51:56.455Z,0
2017-09-25T02:52:36.985Z,0
2017-09-25T02:53:17.520Z,0
2017-09-25T02:53:58.058Z,0
2017-09-25T02:54:38.596Z,0
2017-09-25T02:55:19.119Z,0
2017-09-25T02:55:59.665Z,0
2017-09-25T02:56:40.194Z,0
2017-09-25T02:57:20.728Z,0
2017-09-25T02:58:01.264Z,0
2017-09-25T02:58:41.791Z,0
2017-09-25T02:59:22.324Z,0
2017-09-25T03:00:02.858Z,0
2017-09-25T03:00:43.388Z,0
2017-09-25T03:01:23.925Z,0
2017-09-25T03:02:04.464Z,0
2017-09-25T03:02:44.996Z,0
2017-09-25T03:03:25.534Z,0
2017-09-25T03:04:06.072Z,0
2017-09-25T03:04:46.601Z,0
2017-09-25T03:05:27.134Z,0
2017-09-25T03:06:07.662Z,0
2017-09-25T03:06:48.173Z,0
2017-09-25T03:07:28.705Z,0
2017-09-25T03:08:09.242Z,0
2017-09-25T03:08:49.781Z,0
2017-09-25T03:09:30.319Z,0
2017-09-25T03:10:10.847Z,0
2017-09-25T03:10:51.393Z,0
2017-09-25T03:11:31.928Z,0
2017-09-25T03:12:12.425Z,0
2017-09-25T03:12:52.973Z,0
2017-09-25T03:13:33.510Z,0
2017-09-25T03:14:14.051Z,0
2017-09-25T03:14:54.555Z,0
2017-09-25T03:15:35.074Z,0
2017-09-25T03:16:15.605Z,0
2017-09-25T03:16:56.122Z,0
2017-09-25T03:17:36.637Z,0
2017-09-25T03:18:17.166Z,0
2017-09-25T03:18:57.722Z,0
2017-09-25T03:19:38.244Z,0
2017-09-25T03:20:18.769Z,0
2017-09-25T03:20:59.300Z,0
2017-09-25T03:21:39.831Z,0
2017-09-25T03:22:20.371Z,0
2017-09-25T03:23:00.889Z,0
2017-09-25T03:23:41.414Z,0
2017-09-25T03:24:21.938Z,0
2017-09-25T03:25:02.461Z,0
2017-09-25T03:25:42.976Z,0
2017-09-25T03:26:23.494Z,0
2017-09-25T03:27:04.033Z,0
2017-09-25T03:27:44.561Z,0
2017-09-25T03:28:25.078Z,0
2017-09-25T03:29:05.603Z,0
2017-09-25T03:29:46.116Z,0
2017-09-25T03:30:26.622Z,0
2017-09-25T03:31:07.943Z,0
2017-09-25T03:31:48.458Z,0
2017-09-25T03:32:28.991Z,0
2017-09-25T03:33:09.525Z,0
2017-09-25T03:33:50.062Z,0
2017-09-25T03:34:30.590Z,0
2017-09-25T03:35:11.132Z,0
2017-09-25T03:35:52.401Z,0
2017-09-25T03:36:32.910Z,0
2017-09-25T03:37:13.437Z,0
2017-09-25T03:37:53.996Z,0
2017-09-25T03:38:34.526Z,0
2017-09-25T03:39:15.070Z,0
2017-09-25T03:39:55.577Z,0
2017-09-25T03:40:36.107Z,0
2017-09-25T03:41:16.652Z,0
2017-09-25T03:41:57.135Z,0
2017-09-25T03:42:37.669Z,0
2017-09-25T03:43:18.199Z,0
2017-09-25T03:43:58.710Z,0
2017-09-25T03:44:39.263Z,0
2017-09-25T03:45:19.802Z,0
2017-09-25T03:46:00.358Z,0
2017-09-25T03:46:40.898Z,0
2017-09-25T03:47:21.426Z,0
2017-09-25T03:48:01.956Z,0
2017-09-25T03:48:42.463Z,0
2017-09-25T03:49:22.988Z,0
2017-09-25T03:50:03.527Z,0
2017-09-25T03:50:44.051Z,0
2017-09-25T03:51:24.588Z,0
2017-09-25T03:52:05.118Z,0
2017-09-25T03:52:45.643Z,0
2017-09-25T03:53:26.186Z,0
2017-09-25T03:54:06.714Z,0
2017-09-25T03:54:47.249Z,0
2017-09-25T03:55:27.793Z,0
2017-09-25T03:56:08.320Z,0
2017-09-25T03:56:48.869Z,0
2017-09-25T03:57:29.394Z,0
2017-09-25T03:58:09.925Z,0
2017-09-25T03:58:50.460Z,0
2017-09-25T03:59:30.994Z,0
2017-09-25T04:00:11.512Z,0
2017-09-25T04:00:52.059Z,0
2017-09-25T04:01:32.586Z,0
2017-09-25T04:02:13.098Z,0
2017-09-25T04:02:54.336Z,0
2017-09-25T04:03:36.385Z,0
2017-09-25T04:04:18.562Z,0
2017-09-25T04:05:00.588Z,0
2017-09-25T04:05:43.184Z,0
2017-09-25T04:06:25.572Z,0
2017-09-25T04:07:07.655Z,0
2017-09-25T04:07:48.188Z,0
2017-09-25T04:08:28.720Z,0
2017-09-25T04:09:09.259Z,0
2017-09-25T04:09:49.800Z,0
2017-09-25T04:10:30.372Z,0
2017-09-25T04:11:10.912Z,0
2017-09-25T04:11:51.447Z,0
2017-09-25T04:12:31.976Z,0
2017-09-25T04:13:12.481Z,0
2017-09-25T04:13:53.028Z,0
2017-09-25T04:14:33.509Z,0
2017-09-25T04:15:14.014Z,0
2017-09-25T04:15:54.566Z,0
2017-09-25T04:16:35.086Z,0
2017-09-25T04:17:15.622Z,0
2017-09-25T04:17:56.172Z,0
2017-09-25T04:18:36.692Z,0
2017-09-25T04:19:17.209Z,0
2017-09-25T04:19:57.730Z,0
2017-09-25T04:20:38.256Z,0
2017-09-25T04:21:18.781Z,0
2017-09-25T04:21:59.336Z,0
2017-09-25T04:22:39.883Z,0
2017-09-25T04:23:20.397Z,0
2017-09-25T04:24:00.922Z,0
2017-09-25T04:24:41.459Z,0
2017-09-25T04:25:21.982Z,0
2017-09-25T04:26:02.498Z,0
2017-09-25T04:26:43.032Z,0
2017-09-25T04:27:23.543Z,0
2017-09-25T04:28:04.050Z,0
2017-09-25T04:28:44.560Z,0
2017-09-25T04:29:25.133Z,0
2017-09-25T04:30:05.673Z,0
2017-09-25T04:30:46.199Z,0
2017-09-25T04:31:28.289Z,0
2017-09-25T04:32:08.818Z,0
2017-09-25T04:32:49.905Z,0
2017-09-25T04:33:31.988Z,0
2017-09-25T04:34:13.824Z,0
2017-09-25T04:34:56.127Z,0
2017-09-25T04:35:37.981Z,0
2017-09-25T04:36:20.702Z,0
2017-09-25T04:37:01.516Z,0
2017-09-25T04:37:42.029Z,0
2017-09-25T04:38:22.542Z,0
2017-09-25T04:39:03.037Z,0
2017-09-25T04:39:43.559Z,0
2017-09-25T04:40:24.077Z,0
2017-09-25T04:41:04.590Z,0
2017-09-25T04:41:45.110Z,0
2017-09-25T04:42:25.644Z,0
2017-09-25T04:43:06.168Z,0
2017-09-25T04:43:46.688Z,0
2017-09-25T04:44:27.226Z,0
2017-09-25T04:45:07.757Z,0
2017-09-25T04:45:48.288Z,0
2017-09-25T04:46:28.827Z,0
2017-09-25T04:47:09.345Z,0
2017-09-25T04:47:49.859Z,0
2017-09-25T04:48:32.379Z,0
2017-09-25T04:49:14.287Z,0
2017-09-25T04:49:56.753Z,0
2017-09-25T04:50:39.449Z,0
2017-09-25T04:51:21.830Z,0
2017-09-25T04:52:02.345Z,0
2017-09-25T04:52:42.866Z,0
2017-09-25T04:53:23.397Z,0
2017-09-25T04:54:03.890Z,0
2017-09-25T04:54:44.414Z,0
2017-09-25T04:55:24.933Z,0
2017-09-25T04:56:05.465Z,0
2017-09-25T04:56:45.991Z,0
2017-09-25T04:57:26.530Z,0
2017-09-25T04:58:07.061Z,0
2017-09-25T04:58:47.603Z,0
2017-09-25T04:59:28.140Z,4
2017-09-25T05:00:08.671Z,4
2017-09-25T05:00:49.192Z,4
2017-09-25T05:01:29.717Z,0
2017-09-25T05:02:10.231Z,4
2017-09-25T05:02:50.764Z,4
2017-09-25T05:03:31.290Z,4
2017-09-25T05:04:11.802Z,8
2017-09-25T05:04:52.298Z,4
2017-09-25T05:05:32.825Z,8
2017-09-25T05:06:13.316Z,8
2017-09-25T05:06:54.418Z,8
2017-09-25T05:07:34.943Z,12
2017-09-25T05:08:15.455Z,12
2017-09-25T05:08:55.988Z,8
2017-09-25T05:09:36.487Z,12
2017-09-25T05:10:17.011Z,12
2017-09-25T05:10:57.540Z,12
2017-09-25T05:11:38.055Z,20
2017-09-25T05:12:18.565Z,20
2017-09-25T05:12:59.073Z,20
2017-09-25T05:13:39.596Z,20
2017-09-25T05:14:20.119Z,20
2017-09-25T05:15:00.624Z,24
2017-09-25T05:15:41.165Z,28
2017-09-25T05:16:21.656Z,28
2017-09-25T05:17:02.170Z,32
2017-09-25T05:17:42.679Z,32
2017-09-25T05:18:23.199Z,36
2017-09-25T05:19:03.707Z,40
2017-09-25T05:19:44.241Z,44
2017-09-25T05:20:24.729Z,48
2017-09-25T05:21:05.262Z,52
2017-09-25T05:21:45.782Z,52
2017-09-25T05:22:26.285Z,60
2017-09-25T05:23:06.808Z,64
2017-09-25T05:23:47.332Z,68
2017-09-25T05:24:27.845Z,72
2017-09-25T05:25:08.362Z,80
2017-09-25T05:25:48.860Z,84
2017-09-25T05:26:29.423Z,88
2017-09-25T05:27:09.894Z,96
2017-09-25T05:27:50.427Z,104
2017-09-25T05:28:30.949Z,112
2017-09-25T05:29:11.472Z,116
2017-09-25T05:29:52.015Z,124
2017-09-25T05:30:32.532Z,132
2017-09-25T05:31:13.037Z,140
2017-09-25T05:31:53.574Z,148
2017-09-25T05:32:34.109Z,156
2017-09-25T05:33:14.642Z,164
2017-09-25T05:33:55.162Z,172
2017-09-25T05:34:35.685Z,176
2017-09-25T05:35:16.195Z,188
2017-09-25T05:35:56.717Z,192
2017-09-25T05:36:37.218Z,200
2017-09-25T05:37:17.760Z,204
2017-09-25T05:37:58.235Z,208
2017-09-25T05:38:38.746Z,220
2017-09-25T05:39:19.285Z,220
2017-09-25T05:39:59.800Z,228
2017-09-25T05:40:40.339Z,236
2017-09-25T05:41:20.867Z,244
2017-09-25T05:42:01.397Z,244
2017-09-25T05:42:41.936Z,248
2017-09-25T05:43:22.473Z,248
2017-09-25T05:44:02.994Z,252
2017-09-25T05:44:43.528Z,264
2017-09-25T05:45:24.059Z,272
2017-09-25T05:46:04.567Z,284
2017-09-25T05:46:45.109Z,288
2017-09-25T05:47:25.636Z,296
2017-09-25T05:48:06.175Z,296
2017-09-25T05:48:46.709Z,308
2017-09-25T05:49:27.226Z,316
2017-09-25T05:50:07.741Z,320
2017-09-25T05:50:48.260Z,332
2017-09-25T05:51:28.784Z,324
2017-09-25T05:52:09.301Z,324
2017-09-25T05:52:49.822Z,332
2017-09-25T05:53:30.359Z,340
2017-09-25T05:54:10.889Z,336
2017-09-25T05:54:51.422Z,332
2017-09-25T05:55:31.948Z,344
2017-09-25T05:56:12.463Z,348
2017-09-25T05:56:52.990Z,348
2017-09-25T05:57:33.512Z,352
2017-09-25T05:58:14.024Z,372
2017-09-25T05:58:54.539Z,396
2017-09-25T05:59:35.035Z,412
2017-09-25T06:00:15.565Z,444
2017-09-25T06:00:56.113Z,476
2017-09-25T06:01:36.651Z,504
2017-09-25T06:02:17.160Z,540
2017-09-25T06:02:57.674Z,580
2017-09-25T06:03:38.209Z,584
2017-09-25T06:04:18.732Z,628
2017-09-25T06:04:59.257Z,660
2017-09-25T06:05:39.786Z,696
2017-09-25T06:06:20.332Z,684
2017-09-25T06:07:00.871Z,708
2017-09-25T06:07:41.402Z,720
2017-09-25T06:08:21.931Z,684
2017-09-25T06:09:02.451Z,684
2017-09-25T06:09:42.984Z,648
2017-09-25T06:10:23.534Z,628
2017-09-25T06:11:04.057Z,608
2017-09-25T06:11:44.565Z,588
2017-09-25T06:12:25.105Z,612
2017-09-25T06:13:05.644Z,620
2017-09-25T06:13:46.182Z,608
2017-09-25T06:14:26.721Z,592
2017-09-25T06:15:07.258Z,616
2017-09-25T06:15:47.802Z,644
2017-09-25T06:16:28.335Z,616
2017-09-25T06:17:08.845Z,628
2017-09-25T06:17:49.364Z,648
2017-09-25T06:18:29.874Z,664
2017-09-25T06:19:10.393Z,668
2017-09-25T06:19:50.923Z,680
2017-09-25T06:20:31.442Z,696
2017-09-25T06:21:11.956Z,704
2017-09-25T06:21:52.489Z,732
2017-09-25T06:22:32.991Z,740
2017-09-25T06:23:13.505Z,764
2017-09-25T06:23:54.116Z,800
2017-09-25T06:24:34.613Z,784
2017-09-25T06:25:15.133Z,848
2017-09-25T06:25:55.657Z,860
2017-09-25T06:26:36.173Z,968
2017-09-25T06:27:16.703Z,1044
2017-09-25T06:27:57.243Z,1112
2017-09-25T06:28:37.780Z,1100
2017-09-25T06:29:18.321Z,1144
2017-09-25T06:29:58.848Z,1244
2017-09-25T06:30:39.400Z,1272
2017-09-25T06:31:19.917Z,1300
2017-09-25T06:32:00.447Z,1332
2017-09-25T06:32:40.991Z,1312
2017-09-25T06:33:21.517Z,1352
2017-09-25T06:34:02.050Z,1348
2017-09-25T06:34:42.591Z,1372
2017-09-25T06:35:23.121Z,1388
2017-09-25T06:36:03.696Z,1404
2017-09-25T06:36:44.236Z,1408
2017-09-25T06:37:24.764Z,1548
2017-09-25T06:38:05.303Z,1612
2017-09-25T06:38:45.857Z,1628
2017-09-25T06:39:26.394Z,1612
2017-09-25T06:40:06.919Z,1664
2017-09-25T06:40:47.449Z,1856
2017-09-25T06:41:27.983Z,1944
2017-09-25T06:42:08.515Z,2008
2017-09-25T06:42:49.057Z,2120
2017-09-25T06:43:29.577Z,2240
2017-09-25T06:44:10.133Z,2340
2017-09-25T06:44:50.673Z,2380
2017-09-25T06:45:31.204Z,2428
2017-09-25T06:46:11.744Z,2376
2017-09-25T06:46:52.282Z,2316
2017-09-25T06:47:33.739Z,2296
2017-09-25T06:48:14.282Z,2260
2017-09-25T06:48:54.817Z,2212
2017-09-25T06:49:35.333Z,2204
2017-09-25T06:50:15.853Z,2208
2017-09-25T06:50:56.379Z,2212
2017-09-25T06:51:36.908Z,2240
2017-09-25T06:52:17.445Z,2284
2017-09-25T06:52:57.961Z,2364
2017-09-25T06:53:38.485Z,2448
2017-09-25T06:54:19.023Z,2456
2017-09-25T06:54:59.556Z,2492
2017-09-25T06:55:40.082Z,2504
2017-09-25T06:56:20.624Z,2480
2017-09-25T06:57:01.152Z,2484
2017-09-25T06:57:41.689Z,2456
2017-09-25T06:58:22.230Z,2428
2017-09-25T06:59:02.776Z,2436
2017-09-25T06:59:43.316Z,2488
2017-09-25T07:00:23.856Z,2404
2017-09-25T07:01:04.387Z,2252
2017-09-25T07:01:44.918Z,2196
2017-09-25T07:02:25.454Z,2192
2017-09-25T07:03:05.993Z,2100
2017-09-25T07:03:46.528Z,2072
2017-09-25T07:04:27.068Z,2120
2017-09-25T07:05:07.649Z,2188
2017-09-25T07:05:48.196Z,2336
2017-09-25T07:06:28.745Z,2520
2017-09-25T07:07:09.284Z,2808
2017-09-25T07:07:49.837Z,3092
2017-09-25T07:08:30.371Z,3620
2017-09-25T07:09:10.914Z,3732
2017-09-25T07:09:51.496Z,3496
2017-09-25T07:10:31.993Z,3364
2017-09-25T07:11:12.522Z,3952
2017-09-25T07:11:53.067Z,4036
2017-09-25T07:12:33.608Z,3640
2017-09-25T07:13:14.141Z,3300
2017-09-25T07:13:54.673Z,3240
2017-09-25T07:14:35.212Z,3592
2017-09-25T07:15:15.747Z,4168
2017-09-25T07:15:56.276Z,3960
2017-09-25T07:16:36.814Z,4236
2017-09-25T07:17:17.357Z,4264
2017-09-25T07:17:57.897Z,4424
2017-09-25T07:18:38.453Z,4072
2017-09-25T07:19:18.995Z,3600
2017-09-25T07:19:59.536Z,4076
2017-09-25T07:20:40.078Z,4220
2017-09-25T07:21:20.637Z,3968
2017-09-25T07:22:01.177Z,4168
2017-09-25T07:22:41.723Z,3928
2017-09-25T07:23:22.259Z,3576
2017-09-25T07:24:02.795Z,3620
2017-09-25T07:24:43.336Z,3792
2017-09-25T07:25:23.872Z,3568
2017-09-25T07:26:04.417Z,3588
2017-09-25T07:26:44.956Z,3760
2017-09-25T07:27:25.485Z,3424
2017-09-25T07:28:06.034Z,3736
2017-09-25T07:28:46.580Z,3424
2017-09-25T07:29:27.112Z,3200
2017-09-25T07:30:07.646Z,3524
2017-09-25T07:30:48.185Z,2856
2017-09-25T07:31:28.731Z,2856
2017-09-25T07:32:09.269Z,2644
2017-09-25T07:32:49.812Z,2488
2017-09-25T07:33:30.356Z,2388
2017-09-25T07:34:10.901Z,2660
2017-09-25T07:34:51.445Z,2620
2017-09-25T07:35:31.976Z,2044
2017-09-25T07:36:12.495Z,1848
2017-09-25T07:36:53.032Z,1828
2017-09-25T07:37:33.576Z,1836
2017-09-25T07:38:14.104Z,1884
2017-09-25T07:38:54.659Z,1712
2017-09-25T07:39:35.176Z,1484
2017-09-25T07:40:15.687Z,1664
2017-09-25T07:40:56.232Z,1788
2017-09-25T07:41:36.766Z,1700
2017-09-25T07:42:17.311Z,1856
2017-09-25T07:42:57.861Z,2004
2017-09-25T07:45:37.885Z,2936
2017-09-25T07:46:18.419Z,2880
2017-09-25T07:46:58.952Z,2824
2017-09-25T07:47:39.495Z,3152
2017-09-25T07:48:20.026Z,3244
2017-09-25T07:49:00.568Z,3252
2017-09-25T07:49:41.096Z,3380
2017-09-25T07:50:21.631Z,3864
2017-09-25T07:51:02.154Z,4280
2017-09-25T07:51:42.675Z,4784
2017-09-25T07:52:23.198Z,5112
2017-09-25T07:53:03.715Z,3900
2017-09-25T07:53:44.236Z,3696
2017-09-25T07:54:24.749Z,4120
2017-09-25T07:55:05.267Z,4464
2017-09-25T07:55:45.787Z,4660
2017-09-25T07:56:26.315Z,4328
2017-09-25T07:57:06.852Z,4188
2017-09-25T07:57:47.392Z,4312
2017-09-25T07:58:27.903Z,4684
2017-09-25T07:59:08.437Z,4724
2017-09-25T07:59:48.979Z,4868
2017-09-25T08:00:29.507Z,4620
2017-09-25T08:01:10.039Z,4172
2017-09-25T08:01:50.585Z,4460
2017-09-25T08:02:31.120Z,4632
2017-09-25T08:03:11.643Z,4048
2017-09-25T08:03:52.160Z,3612
2017-09-25T08:04:32.692Z,4184
2017-09-25T08:05:13.209Z,4180
2017-09-25T08:05:53.742Z,4136
2017-09-25T08:06:34.262Z,4132
2017-09-25T08:07:14.801Z,4380
2017-09-25T08:07:55.328Z,4628
2017-09-25T08:08:35.848Z,4676
2017-09-25T08:09:16.387Z,5320
2017-09-25T08:09:56.906Z,5876
2017-09-25T08:10:37.446Z,5832
2017-09-25T08:11:17.975Z,5388
2017-09-25T08:11:58.566Z,4992
2017-09-25T08:12:39.101Z,4632
2017-09-25T08:13:19.633Z,4296
2017-09-25T08:14:00.170Z,4336
2017-09-25T08:14:40.705Z,4596
2017-09-25T08:15:22.502Z,5060
2017-09-25T08:16:04.451Z,5156
2017-09-25T08:16:45.190Z,5696
2017-09-25T08:17:25.734Z,6356
2017-09-25T08:18:06.265Z,7104
2017-09-25T08:18:46.803Z,7056
2017-09-25T08:19:27.335Z,7352
2017-09-25T08:20:07.872Z,8324
2017-09-25T08:20:48.424Z,9672
2017-09-25T08:21:28.960Z,9432
2017-09-25T08:22:09.498Z,9180
2017-09-25T08:22:50.033Z,9340
2017-09-25T08:23:30.569Z,9612
2017-09-25T08:24:11.141Z,9372
2017-09-25T08:24:51.672Z,9628
2017-09-25T08:25:32.190Z,9572
2017-09-25T08:26:12.723Z,9372
2017-09-25T08:26:53.251Z,9060
2017-09-25T08:27:33.785Z,8992
2017-09-25T08:28:14.306Z,8140
2017-09-25T08:28:54.930Z,8544
2017-09-25T08:29:35.398Z,10208
2017-09-25T08:30:15.931Z,8388
2017-09-25T08:30:56.469Z,8408
2017-09-25T08:31:36.994Z,9868
2017-09-25T08:32:17.530Z,10780
2017-09-25T08:32:58.061Z,9260
2017-09-25T08:33:38.593Z,8512
2017-09-25T08:34:19.120Z,7908
2017-09-25T08:34:59.636Z,7464
2017-09-25T08:35:40.163Z,7320
2017-09-25T08:36:20.679Z,7200
2017-09-25T08:37:01.222Z,7512
2017-09-25T08:37:41.745Z,7768
2017-09-25T08:38:22.255Z,7380
2017-09-25T08:39:02.791Z,7148
2017-09-25T08:39:43.314Z,7612
2017-09-25T08:40:23.839Z,8412
2017-09-25T08:41:04.357Z,8676
2017-09-25T08:41:44.878Z,8516
2017-09-25T08:42:25.413Z,8596
2017-09-25T08:43:05.951Z,8712
2017-09-25T08:43:46.506Z,8572
2017-09-25T08:44:27.039Z,8492
2017-09-25T08:45:07.586Z,8272
2017-09-25T08:45:48.091Z,8256
2017-09-25T08:46:28.626Z,8452
2017-09-25T08:47:09.155Z,8700
2017-09-25T08:47:49.685Z,9100
2017-09-25T08:48:30.206Z,9452
2017-09-25T08:49:10.747Z,9720
2017-09-25T08:49:51.283Z,10916
2017-09-25T08:50:31.806Z,12732
2017-09-25T08:51:12.341Z,11096
2017-09-25T08:51:52.887Z,11132
2017-09-25T08:52:33.420Z,11760
2017-09-25T08:53:13.932Z,12068
2017-09-25T08:53:54.476Z,11936
2017-09-25T08:54:35.012Z,11792
2017-09-25T08:55:15.555Z,13584
2017-09-25T08:55:56.070Z,14176
2017-09-25T08:56:36.617Z,17952
2017-09-25T08:57:17.148Z,13600
2017-09-25T08:57:57.693Z,13036
2017-09-25T08:58:38.255Z,13532
2017-09-25T08:59:18.803Z,12680
2017-09-25T08:59:59.334Z,16896
2017-09-25T09:00:39.871Z,33824
2017-09-25T09:01:20.416Z,45024
2017-09-25T09:02:00.949Z,26976
2017-09-25T09:02:41.496Z,29504
2017-09-25T09:03:22.035Z,26624
2017-09-25T09:04:02.576Z,42720
2017-09-25T09:04:43.111Z,43552
2017-09-25T09:05:23.654Z,26912
2017-09-25T09:06:04.206Z,40480
2017-09-25T09:06:44.727Z,39648
2017-09-25T09:07:25.272Z,39968
2017-09-25T09:08:05.811Z,39424
2017-09-25T09:08:46.343Z,38976
2017-09-25T09:09:26.872Z,40576
2017-09-25T09:10:07.412Z,41600
2017-09-25T09:10:47.950Z,41536
2017-09-25T09:11:28.496Z,40800
2017-09-25T09:12:09.035Z,41440
2017-09-25T09:12:49.581Z,41856
2017-09-25T09:13:30.119Z,41856
2017-09-25T09:14:10.661Z,42272
2017-09-25T09:14:51.208Z,42976
2017-09-25T09:15:31.729Z,42048
2017-09-25T09:16:12.336Z,41888
2017-09-25T09:16:52.883Z,42528
2017-09-25T09:17:33.420Z,42784
2017-09-25T09:18:13.951Z,43808
2017-09-25T09:18:54.478Z,43360
2017-09-25T09:19:35.012Z,43968
2017-09-25T09:20:15.547Z,43872
2017-09-25T09:20:56.111Z,44288
2017-09-25T09:21:36.678Z,43488
2017-09-25T09:22:17.176Z,42304
2017-09-25T09:22:57.692Z,43488
2017-09-25T09:23:38.230Z,43616
2017-09-25T09:24:18.775Z,43264
2017-09-25T09:24:59.315Z,42592
2017-09-25T09:25:39.856Z,43456
2017-09-25T09:26:20.394Z,43040
2017-09-25T09:27:00.941Z,38464
2017-09-25T09:27:41.489Z,43456
2017-09-25T09:28:21.997Z,42752
2017-09-25T09:29:02.548Z,43936
2017-09-25T09:29:43.086Z,42912
2017-09-25T09:30:23.628Z,43072
2017-09-25T09:31:04.169Z,43360
2017-09-25T09:31:44.737Z,43136
2017-09-25T09:32:25.283Z,41952
2017-09-25T09:33:05.817Z,42496
2017-09-25T09:33:46.369Z,43904
2017-09-25T09:34:26.915Z,43776